Main page
METAR-TAF:

METAR-TAF

Airports :

F 7 Såtenäs

Såtenäs, Sweden

latitude: 58-26N, longitude: 012-42E, elevation: 54 m

Current weather observation

The report was made 42 minutes ago, at 18:50 UTC
Wind 6 kt from the North
Temperature 10°C
Humidity 76%
Pressure 1035 hPa
Visibility 10 km or more

METAR: ESIB 191850Z AUTO 36006KT 9999 NCD 10/06 Q1035

Time: 21:32 (19:32 UTC)


TAF: missing

Weather observations and forecasts of more than 4000 airports (METAR and TAF reports).

The available stations are represented by yellow and red dots on the map.

Hover mouse over dot to see the name of the station.

Then click to see weather observations and forecasts.

To change the map : click on the green buttons with a black cross to zoom in, on the green button with a dash to zoom out, or on the green arrows for adjacent maps.


METAR-TAF: